sensor_id;sensor_type;location;lat;lon;timestamp;pressure;altitude;pressure_sealevel;temperature;humidity
21359;BME280;13506;50.852;20.632;2023-06-10T00:01:48;98057.31;;;16.49;100.00
21359;BME280;13506;50.852;20.632;2023-06-10T00:04:16;98055.84;;;16.29;100.00
21359;BME280;13506;50.852;20.632;2023-06-10T00:06:45;98039.25;;;16.36;100.00
21359;BME280;13506;50.852;20.632;2023-06-10T00:09:15;98049.16;;;16.16;100.00
21359;BME280;13506;50.852;20.632;2023-06-10T00:11:43;98045.31;;;16.11;100.00
21359;BME280;13506;50.852;20.632;2023-06-10T00:14:11;98040.88;;;15.93;100.00
21359;BME280;13506;50.852;20.632;2023-06-10T00:16:39;98044.22;;;15.95;100.00
21359;BME280;13506;50.852;20.632;2023-06-10T00:19:12;98040.09;;;16.19;100.00
21359;BME280;13506;50.852;20.632;2023-06-10T00:21:42;98044.25;;;16.21;100.00
21359;BME280;13506;50.852;20.632;2023-06-10T00:24:11;98035.31;;;16.40;100.00
21359;BME280;13506;50.852;20.632;2023-06-10T00:26:40;98048.66;;;16.39;100.00
21359;BME280;13506;50.852;20.632;2023-06-10T00:29:09;98046.94;;;16.56;100.00
21359;BME280;13506;50.852;20.632;2023-06-10T00:31:38;98050.97;;;16.68;100.00
21359;BME280;13506;50.852;20.632;2023-06-10T00:34:06;98048.66;;;16.73;100.00
21359;BME280;13506;50.852;20.632;2023-06-10T00:36:36;98046.88;;;16.74;100.00
21359;BME280;13506;50.852;20.632;2023-06-10T00:39:04;98049.00;;;16.70;100.00
21359;BME280;13506;50.852;20.632;2023-06-10T00:41:32;98051.13;;;16.67;100.00
21359;BME280;13506;50.852;20.632;2023-06-10T00:44:00;98041.69;;;16.64;100.00
21359;BME280;13506;50.852;20.632;2023-06-10T00:46:28;98048.91;;;16.54;100.00
21359;BME280;13506;50.852;20.632;2023-06-10T00:48:58;98044.88;;;16.68;100.00
21359;BME280;13506;50.852;20.632;2023-06-10T00:51:27;98046.69;;;16.75;100.00
21359;BME280;13506;50.852;20.632;2023-06-10T00:53:57;98050.44;;;16.64;100.00
21359;BME280;13506;50.852;20.632;2023-06-10T00:56:26;98052.69;;;16.51;100.00
21359;BME280;13506;50.852;20.632;2023-06-10T00:58:55;98056.03;;;16.35;100.00
21359;BME280;13506;50.852;20.632;2023-06-10T01:01:23;98053.50;;;16.52;100.00
21359;BME280;13506;50.852;20.632;2023-06-10T01:03:52;98055.53;;;16.58;100.00
21359;BME280;13506;50.852;20.632;2023-06-10T01:06:28;98057.69;;;16.62;98.26
21359;BME280;13506;50.852;20.632;2023-06-10T01:09:06;98055.44;;;16.68;98.22
21359;BME280;13506;50.852;20.632;2023-06-10T01:11:45;98050.63;;;16.71;97.88
21359;BME280;13506;50.852;20.632;2023-06-10T01:14:14;98055.28;;;16.77;97.50
21359;BME280;13506;50.852;20.632;2023-06-10T01:16:43;98055.28;;;16.77;98.06
21359;BME280;13506;50.852;20.632;2023-06-10T01:19:13;98057.69;;;16.89;97.44
21359;BME280;13506;50.852;20.632;2023-06-10T01:21:45;98063.59;;;16.82;96.89
21359;BME280;13506;50.852;20.632;2023-06-10T01:24:15;98067.25;;;16.90;97.09
21359;BME280;13506;50.852;20.632;2023-06-10T01:26:46;98058.31;;;16.82;97.01
21359;BME280;13506;50.852;20.632;2023-06-10T01:29:23;98072.22;;;16.93;97.08
21359;BME280;13506;50.852;20.632;2023-06-10T01:32:01;98061.66;;;16.93;96.58
21359;BME280;13506;50.852;20.632;2023-06-10T01:34:32;98076.19;;;16.89;96.90
21359;BME280;13506;50.852;20.632;2023-06-10T01:37:04;98066.75;;;16.94;97.28
21359;BME280;13506;50.852;20.632;2023-06-10T01:39:32;98066.38;;;16.81;97.16
21359;BME280;13506;50.852;20.632;2023-06-10T01:42:01;98062.78;;;16.90;96.85
21359;BME280;13506;50.852;20.632;2023-06-10T01:44:30;98076.66;;;16.84;96.70
21359;BME280;13506;50.852;20.632;2023-06-10T01:46:58;98072.78;;;16.70;97.11
21359;BME280;13506;50.852;20.632;2023-06-10T01:49:27;98086.59;;;16.64;97.16
21359;BME280;13506;50.852;20.632;2023-06-10T01:51:55;98077.06;;;16.45;98.06
21359;BME280;13506;50.852;20.632;2023-06-10T01:54:24;98079.97;;;16.60;98.06
21359;BME280;13506;50.852;20.632;2023-06-10T01:56:53;98081.84;;;16.68;97.39
21359;BME280;13506;50.852;20.632;2023-06-10T01:59:20;98074.94;;;16.75;96.90
21359;BME280;13506;50.852;20.632;2023-06-10T02:01:48;98081.84;;;16.68;96.80
21359;BME280;13506;50.852;20.632;2023-06-10T02:04:16;98083.28;;;16.62;97.10
21359;BME280;13506;50.852;20.632;2023-06-10T02:06:45;98090.00;;;16.56;97.06
21359;BME280;13506;50.852;20.632;2023-06-10T02:09:13;98087.44;;;16.64;97.04
21359;BME280;13506;50.852;20.632;2023-06-10T02:11:42;98081.31;;;16.64;97.13
21359;BME280;13506;50.852;20.632;2023-06-10T02:14:10;98081.41;;;16.54;97.96
21359;BME280;13506;50.852;20.632;2023-06-10T02:16:38;98078.31;;;16.33;98.97
21359;BME280;13506;50.852;20.632;2023-06-10T02:19:06;98074.50;;;16.27;98.86
21359;BME280;13506;50.852;20.632;2023-06-10T02:21:34;98084.06;;;16.28;99.11
21359;BME280;13506;50.852;20.632;2023-06-10T02:24:02;98089.72;;;16.15;100.00
21359;BME280;13506;50.852;20.632;2023-06-10T02:26:31;98094.56;;;16.20;100.00
21359;BME280;13506;50.852;20.632;2023-06-10T02:29:02;98087.06;;;16.15;100.00
21359;BME280;13506;50.852;20.632;2023-06-10T02:31:30;98082.94;;;16.13;100.00
21359;BME280;13506;50.852;20.632;2023-06-10T02:33:58;98093.06;;;15.99;100.00
21359;BME280;13506;50.852;20.632;2023-06-10T02:36:26;98086.41;;;15.95;100.00
21359;BME280;13506;50.852;20.632;2023-06-10T02:38:55;98087.13;;;16.06;100.00
21359;BME280;13506;50.852;20.632;2023-06-10T02:41:25;98093.47;;;15.95;100.00
21359;BME280;13506;50.852;20.632;2023-06-10T02:43:54;98099.53;;;15.87;100.00
21359;BME280;13506;50.852;20.632;2023-06-10T02:46:24;98098.94;;;15.93;100.00
21359;BME280;13506;50.852;20.632;2023-06-10T02:48:53;98093.66;;;15.93;100.00
21359;BME280;13506;50.852;20.632;2023-06-10T02:51:25;98087.03;;;15.89;100.00
21359;BME280;13506;50.852;20.632;2023-06-10T02:53:58;98085.88;;;15.92;100.00
21359;BME280;13506;50.852;20.632;2023-06-10T02:56:27;98095.44;;;15.57;100.00
21359;BME280;13506;50.852;20.632;2023-06-10T02:58:58;98096.75;;;15.53;100.00
21359;BME280;13506;50.852;20.632;2023-06-10T03:01:29;98095.09;;;15.42;100.00
21359;BME280;13506;50.852;20.632;2023-06-10T03:04:05;98097.56;;;15.26;100.00
21359;BME280;13506;50.852;20.632;2023-06-10T03:06:35;98097.22;;;15.38;100.00
21359;BME280;13506;50.852;20.632;2023-06-10T03:09:19;98113.03;;;15.11;100.00
21359;BME280;13506;50.852;20.632;2023-06-10T03:11:51;98110.53;;;15.09;100.00
21359;BME280;13506;50.852;20.632;2023-06-10T03:14:19;98111.91;;;15.13;100.00
21359;BME280;13506;50.852;20.632;2023-06-10T03:16:49;98114.13;;;15.08;100.00
21359;BME280;13506;50.852;20.632;2023-06-10T03:19:19;98113.63;;;15.22;100.00
21359;BME280;13506;50.852;20.632;2023-06-10T03:21:57;98112.13;;;15.30;100.00
21359;BME280;13506;50.852;20.632;2023-06-10T03:24:25;98118.78;;;15.34;100.00
21359;BME280;13506;50.852;20.632;2023-06-10T03:26:55;98121.53;;;15.32;100.00
21359;BME280;13506;50.852;20.632;2023-06-10T03:29:23;98119.09;;;15.49;100.00
21359;BME280;13506;50.852;20.632;2023-06-10T03:31:53;98122.25;;;15.52;100.00
21359;BME280;13506;50.852;20.632;2023-06-10T03:34:20;98127.16;;;15.47;100.00
21359;BME280;13506;50.852;20.632;2023-06-10T03:36:50;98124.69;;;15.64;100.00
21359;BME280;13506;50.852;20.632;2023-06-10T03:39:18;98130.91;;;15.45;100.00
21359;BME280;13506;50.852;20.632;2023-06-10T03:41:47;98121.19;;;15.45;100.00
21359;BME280;13506;50.852;20.632;2023-06-10T03:44:15;98139.06;;;15.51;100.00
21359;BME280;13506;50.852;20.632;2023-06-10T03:46:44;98135.53;;;15.60;100.00
21359;BME280;13506;50.852;20.632;2023-06-10T03:49:13;98129.59;;;15.76;100.00
21359;BME280;13506;50.852;20.632;2023-06-10T03:51:43;98135.78;;;15.85;100.00
21359;BME280;13506;50.852;20.632;2023-06-10T03:54:11;98136.34;;;15.61;100.00
21359;BME280;13506;50.852;20.632;2023-06-10T03:56:39;98139.44;;;15.56;100.00
21359;BME280;13506;50.852;20.632;2023-06-10T03:59:07;98143.06;;;15.55;100.00
21359;BME280;13506;50.852;20.632;2023-06-10T04:01:36;98147.94;;;15.50;100.00
21359;BME280;13506;50.852;20.632;2023-06-10T04:04:07;98153.41;;;15.39;100.00
21359;BME280;13506;50.852;20.632;2023-06-10T04:06:37;98136.69;;;15.48;100.00
21359;BME280;13506;50.852;20.632;2023-06-10T04:09:05;98133.38;;;15.46;100.00
21359;BME280;13506;50.852;20.632;2023-06-10T04:11:34;98146.91;;;15.61;100.00
21359;BME280;13506;50.852;20.632;2023-06-10T04:14:02;98156.94;;;15.57;100.00
21359;BME280;13506;50.852;20.632;2023-06-10T04:16:31;98148.03;;;15.58;100.00
21359;BME280;13506;50.852;20.632;2023-06-10T04:19:00;98143.06;;;15.73;100.00
21359;BME280;13506;50.852;20.632;2023-06-10T04:21:29;98153.28;;;15.40;100.00
21359;BME280;13506;50.852;20.632;2023-06-10T04:23:58;98149.16;;;15.28;100.00
21359;BME280;13506;50.852;20.632;2023-06-10T04:26:27;98145.28;;;15.50;100.00
21359;BME280;13506;50.852;20.632;2023-06-10T04:28:55;98150.97;;;15.55;100.00
21359;BME280;13506;50.852;20.632;2023-06-10T04:31:24;98153.06;;;15.52;100.00
21359;BME280;13506;50.852;20.632;2023-06-10T04:33:52;98146.97;;;15.51;100.00
21359;BME280;13506;50.852;20.632;2023-06-10T04:36:20;98156.63;;;15.60;100.00
21359;BME280;13506;50.852;20.632;2023-06-10T04:38:48;98155.22;;;15.38;100.00
21359;BME280;13506;50.852;20.632;2023-06-10T04:41:20;98152.03;;;15.35;100.00
21359;BME280;13506;50.852;20.632;2023-06-10T04:43:49;98153.56;;;15.37;100.00
21359;BME280;13506;50.852;20.632;2023-06-10T04:46:18;98157.13;;;15.09;100.00
21359;BME280;13506;50.852;20.632;2023-06-10T04:48:45;98157.72;;;14.93;100.00
21359;BME280;13506;50.852;20.632;2023-06-10T04:51:14;98157.53;;;15.04;100.00
21359;BME280;13506;50.852;20.632;2023-06-10T04:53:43;98163.78;;;15.13;100.00
21359;BME280;13506;50.852;20.632;2023-06-10T04:56:11;98163.81;;;14.93;100.00
21359;BME280;13506;50.852;20.632;2023-06-10T04:58:40;98162.59;;;14.88;100.00
21359;BME280;13506;50.852;20.632;2023-06-10T05:01:08;98171.00;;;15.01;100.00
21359;BME280;13506;50.852;20.632;2023-06-10T05:03:36;98159.97;;;14.78;100.00
21359;BME280;13506;50.852;20.632;2023-06-10T05:06:04;98161.44;;;14.33;100.00
21359;BME280;13506;50.852;20.632;2023-06-10T05:08:32;98162.25;;;14.34;100.00
21359;BME280;13506;50.852;20.632;2023-06-10T05:11:00;98162.81;;;14.37;100.00
21359;BME280;13506;50.852;20.632;2023-06-10T05:13:28;98160.56;;;14.72;100.00
21359;BME280;13506;50.852;20.632;2023-06-10T05:15:58;98168.72;;;14.78;100.00
21359;BME280;13506;50.852;20.632;2023-06-10T05:18:25;98173.88;;;14.70;100.00
21359;BME280;13506;50.852;20.632;2023-06-10T05:20:53;98172.50;;;14.56;100.00
21359;BME280;13506;50.852;20.632;2023-06-10T05:23:21;98173.88;;;14.60;100.00
21359;BME280;13506;50.852;20.632;2023-06-10T05:25:50;98178.41;;;14.78;100.00
21359;BME280;13506;50.852;20.632;2023-06-10T05:28:18;98177.41;;;14.98;100.00
21359;BME280;13506;50.852;20.632;2023-06-10T05:30:46;98180.44;;;15.04;100.00
21359;BME280;13506;50.852;20.632;2023-06-10T05:33:15;98183.28;;;15.30;100.00
21359;BME280;13506;50.852;20.632;2023-06-10T05:35:43;98184.47;;;15.45;100.00
21359;BME280;13506;50.852;20.632;2023-06-10T05:38:11;98180.66;;;15.57;100.00
21359;BME280;13506;50.852;20.632;2023-06-10T05:40:39;98193.09;;;15.65;100.00
21359;BME280;13506;50.852;20.632;2023-06-10T05:43:07;98184.16;;;15.76;100.00
21359;BME280;13506;50.852;20.632;2023-06-10T05:45:36;98187.09;;;15.73;100.00
21359;BME280;13506;50.852;20.632;2023-06-10T05:52:15;98200.84;;;15.94;100.00
21359;BME280;13506;50.852;20.632;2023-06-10T05:58:50;98201.88;;;16.29;100.00
21359;BME280;13506;50.852;20.632;2023-06-10T06:01:19;98215.81;;;16.39;100.00
21359;BME280;13506;50.852;20.632;2023-06-10T06:03:46;98196.72;;;16.46;100.00
21359;BME280;13506;50.852;20.632;2023-06-10T06:06:14;98202.28;;;16.60;100.00
21359;BME280;13506;50.852;20.632;2023-06-10T06:08:44;98197.41;;;16.66;100.00
21359;BME280;13506;50.852;20.632;2023-06-10T06:11:12;98204.19;;;16.68;100.00
21359;BME280;13506;50.852;20.632;2023-06-10T06:13:40;98202.75;;;16.74;100.00
21359;BME280;13506;50.852;20.632;2023-06-10T06:16:08;98193.94;;;16.65;100.00
21359;BME280;13506;50.852;20.632;2023-06-10T06:18:36;98194.63;;;16.75;100.00
21359;BME280;13506;50.852;20.632;2023-06-10T06:21:04;98185.63;;;16.86;100.00
21359;BME280;13506;50.852;20.632;2023-06-10T06:23:32;98185.53;;;16.96;100.00
21359;BME280;13506;50.852;20.632;2023-06-10T06:26:01;98186.97;;;17.08;100.00
21359;BME280;13506;50.852;20.632;2023-06-10T06:28:29;98185.34;;;17.15;100.00
21359;BME280;13506;50.852;20.632;2023-06-10T06:30:58;98192.69;;;17.30;100.00
21359;BME280;13506;50.852;20.632;2023-06-10T06:33:26;98205.63;;;17.41;100.00
21359;BME280;13506;50.852;20.632;2023-06-10T06:35:54;98201.38;;;17.48;100.00
21359;BME280;13506;50.852;20.632;2023-06-10T06:38:22;98204.41;;;17.61;100.00
21359;BME280;13506;50.852;20.632;2023-06-10T06:40:50;98200.13;;;17.60;100.00
21359;BME280;13506;50.852;20.632;2023-06-10T06:43:19;98204.03;;;17.48;100.00
21359;BME280;13506;50.852;20.632;2023-06-10T06:46:03;98194.13;;;17.50;100.00
21359;BME280;13506;50.852;20.632;2023-06-10T06:48:31;98206.47;;;17.41;100.00
21359;BME280;13506;50.852;20.632;2023-06-10T06:50:59;98219.81;;;17.32;100.00
21359;BME280;13506;50.852;20.632;2023-06-10T06:53:27;98218.94;;;17.23;100.00
21359;BME280;13506;50.852;20.632;2023-06-10T06:55:55;98220.09;;;17.20;100.00
21359;BME280;13506;50.852;20.632;2023-06-10T06:58:24;98216.81;;;17.27;100.00
21359;BME280;13506;50.852;20.632;2023-06-10T07:00:52;98209.28;;;17.40;100.00
21359;BME280;13506;50.852;20.632;2023-06-10T07:03:22;98217.44;;;17.55;100.00
21359;BME280;13506;50.852;20.632;2023-06-10T07:05:50;98225.41;;;17.63;100.00
21359;BME280;13506;50.852;20.632;2023-06-10T07:08:18;98226.28;;;17.72;100.00
21359;BME280;13506;50.852;20.632;2023-06-10T07:10:46;98217.72;;;17.86;100.00
21359;BME280;13506;50.852;20.632;2023-06-10T07:13:15;98223.91;;;17.95;100.00
21359;BME280;13506;50.852;20.632;2023-06-10T07:41:22;98246.84;;;18.61;100.00
21359;BME280;13506;50.852;20.632;2023-06-10T07:43:52;98244.53;;;18.58;100.00
21359;BME280;13506;50.852;20.632;2023-06-10T07:46:21;98244.03;;;18.63;100.00
21359;BME280;13506;50.852;20.632;2023-06-10T07:48:49;98254.50;;;18.73;100.00
21359;BME280;13506;50.852;20.632;2023-06-10T07:51:18;98250.69;;;18.75;100.00
21359;BME280;13506;50.852;20.632;2023-06-10T07:54:27;98257.31;;;18.79;100.00
21359;BME280;13506;50.852;20.632;2023-06-10T08:01:04;98265.06;;;18.97;100.00
21359;BME280;13506;50.852;20.632;2023-06-10T08:03:32;98266.75;;;18.90;98.90
21359;BME280;13506;50.852;20.632;2023-06-10T08:06:00;98264.91;;;18.99;99.32
21359;BME280;13506;50.852;20.632;2023-06-10T08:08:28;98267.88;;;19.12;99.69
21359;BME280;13506;50.852;20.632;2023-06-10T08:15:04;98268.56;;;18.98;98.77
21359;BME280;13506;50.852;20.632;2023-06-10T08:20:58;98273.16;;;19.53;96.81
21359;BME280;13506;50.852;20.632;2023-06-10T08:23:27;98270.13;;;19.56;93.69
21359;BME280;13506;50.852;20.632;2023-06-10T08:25:54;98267.56;;;19.79;93.98
21359;BME280;13506;50.852;20.632;2023-06-10T08:28:22;98280.75;;;20.04;93.99
21359;BME280;13506;50.852;20.632;2023-06-10T08:30:51;98281.25;;;19.99;92.58
21359;BME280;13506;50.852;20.632;2023-06-10T08:33:19;98284.19;;;20.13;91.13
21359;BME280;13506;50.852;20.632;2023-06-10T08:35:48;98280.22;;;20.08;90.61
21359;BME280;13506;50.852;20.632;2023-06-10T08:38:17;98283.31;;;20.20;90.59
21359;BME280;13506;50.852;20.632;2023-06-10T08:40:45;98283.78;;;20.32;89.59
21359;BME280;13506;50.852;20.632;2023-06-10T08:43:21;98279.94;;;20.58;89.87
21359;BME280;13506;50.852;20.632;2023-06-10T08:45:50;98278.47;;;20.55;89.95
21359;BME280;13506;50.852;20.632;2023-06-10T08:48:21;98278.81;;;20.52;89.53
21359;BME280;13506;50.852;20.632;2023-06-10T08:50:51;98281.53;;;20.67;87.73
21359;BME280;13506;50.852;20.632;2023-06-10T08:53:21;98284.56;;;20.41;87.67
21359;BME280;13506;50.852;20.632;2023-06-10T08:55:51;98283.91;;;20.85;88.91
21359;BME280;13506;50.852;20.632;2023-06-10T08:58:20;98276.81;;;21.00;88.10
21359;BME280;13506;50.852;20.632;2023-06-10T09:05:03;98280.47;;;21.67;81.54
21359;BME280;13506;50.852;20.632;2023-06-10T09:07:31;98279.94;;;22.01;79.38
21359;BME280;13506;50.852;20.632;2023-06-10T09:10:04;98276.97;;;21.66;78.80
21359;BME280;13506;50.852;20.632;2023-06-10T09:12:34;98276.53;;;21.48;78.62
21359;BME280;13506;50.852;20.632;2023-06-10T09:15:05;98284.91;;;21.75;78.32
21359;BME280;13506;50.852;20.632;2023-06-10T09:17:33;98283.75;;;22.14;76.53
21359;BME280;13506;50.852;20.632;2023-06-10T09:20:03;98281.09;;;22.14;74.06
21359;BME280;13506;50.852;20.632;2023-06-10T09:22:32;98287.03;;;22.30;74.66
21359;BME280;13506;50.852;20.632;2023-06-10T09:25:05;98273.44;;;22.83;72.16
21359;BME280;13506;50.852;20.632;2023-06-10T09:27:45;98280.53;;;22.55;68.44
21359;BME280;13506;50.852;20.632;2023-06-10T09:30:26;98288.28;;;22.71;69.80
21359;BME280;13506;50.852;20.632;2023-06-10T09:32:56;98280.47;;;22.48;67.01
21359;BME280;13506;50.852;20.632;2023-06-10T09:35:25;98284.34;;;22.09;70.87
21359;BME280;13506;50.852;20.632;2023-06-10T09:37:56;98285.50;;;22.58;69.18
21359;BME280;13506;50.852;20.632;2023-06-10T09:40:26;98286.09;;;23.03;66.60
21359;BME280;13506;50.852;20.632;2023-06-10T09:42:55;98282.91;;;23.42;66.59
21359;BME280;13506;50.852;20.632;2023-06-10T09:45:28;98283.28;;;23.67;64.82
21359;BME280;13506;50.852;20.632;2023-06-10T09:47:57;98280.09;;;23.50;63.15
21359;BME280;13506;50.852;20.632;2023-06-10T09:50:25;98281.63;;;23.66;64.25
21359;BME280;13506;50.852;20.632;2023-06-10T09:52:53;98280.78;;;24.01;62.66
21359;BME280;13506;50.852;20.632;2023-06-10T09:55:21;98287.75;;;23.95;62.38
21359;BME280;13506;50.852;20.632;2023-06-10T09:57:54;98296.63;;;23.67;61.00
21359;BME280;13506;50.852;20.632;2023-06-10T10:00:23;98280.22;;;23.70;61.04
21359;BME280;13506;50.852;20.632;2023-06-10T10:02:54;98294.41;;;23.36;60.72
21359;BME280;13506;50.852;20.632;2023-06-10T10:05:23;98288.44;;;23.34;61.08
21359;BME280;13506;50.852;20.632;2023-06-10T10:07:51;98289.31;;;23.13;62.20
21359;BME280;13506;50.852;20.632;2023-06-10T10:10:21;98287.00;;;22.88;63.43
21359;BME280;13506;50.852;20.632;2023-06-10T10:12:54;98291.94;;;22.91;64.19
21359;BME280;13506;50.852;20.632;2023-06-10T10:15:25;98286.69;;;22.98;62.88
21359;BME280;13506;50.852;20.632;2023-06-10T10:18:00;98280.22;;;23.07;63.25
21359;BME280;13506;50.852;20.632;2023-06-10T10:20:33;98283.44;;;23.24;62.68
21359;BME280;13506;50.852;20.632;2023-06-10T10:23:03;98284.72;;;22.42;62.61
21359;BME280;13506;50.852;20.632;2023-06-10T10:25:37;98284.47;;;22.80;63.62
21359;BME280;13506;50.852;20.632;2023-06-10T10:28:09;98286.56;;;22.63;61.51
21359;BME280;13506;50.852;20.632;2023-06-10T10:30:40;98282.50;;;22.46;62.30
21359;BME280;13506;50.852;20.632;2023-06-10T10:33:15;98275.09;;;22.63;63.47
21359;BME280;13506;50.852;20.632;2023-06-10T10:35:45;98276.19;;;22.97;61.80
21359;BME280;13506;50.852;20.632;2023-06-10T10:38:14;98283.44;;;23.24;59.22
21359;BME280;13506;50.852;20.632;2023-06-10T10:40:43;98286.66;;;23.48;60.58
21359;BME280;13506;50.852;20.632;2023-06-10T10:43:14;98286.00;;;22.89;60.88
21359;BME280;13506;50.852;20.632;2023-06-10T10:45:44;98283.53;;;22.30;63.21
21359;BME280;13506;50.852;20.632;2023-06-10T10:48:13;98282.88;;;22.28;63.78
21359;BME280;13506;50.852;20.632;2023-06-10T10:50:42;98289.31;;;22.34;65.01
21359;BME280;13506;50.852;20.632;2023-06-10T10:53:10;98289.88;;;22.29;64.69
21359;BME280;13506;50.852;20.632;2023-06-10T10:55:38;98290.69;;;22.66;65.52
21359;BME280;13506;50.852;20.632;2023-06-10T10:58:08;98282.44;;;22.82;63.91
21359;BME280;13506;50.852;20.632;2023-06-10T11:00:44;98272.22;;;22.64;62.91
21359;BME280;13506;50.852;20.632;2023-06-10T11:03:14;98273.34;;;22.77;63.57
21359;BME280;13506;50.852;20.632;2023-06-10T11:05:46;98264.66;;;22.68;63.81
21359;BME280;13506;50.852;20.632;2023-06-10T11:11:19;98269.66;;;22.35;63.80
21359;BME280;13506;50.852;20.632;2023-06-10T11:14:07;98266.69;;;22.66;62.75
21359;BME280;13506;50.852;20.632;2023-06-10T11:16:42;98263.66;;;22.69;62.83
21359;BME280;13506;50.852;20.632;2023-06-10T11:19:32;98259.94;;;23.13;62.06
21359;BME280;13506;50.852;20.632;2023-06-10T11:22:02;98258.94;;;22.93;61.55
21359;BME280;13506;50.852;20.632;2023-06-10T11:24:30;98251.97;;;23.20;61.31
21359;BME280;13506;50.852;20.632;2023-06-10T11:27:25;98246.34;;;23.36;60.13
21359;BME280;13506;50.852;20.632;2023-06-10T11:30:18;98250.31;;;23.47;59.90
21359;BME280;13506;50.852;20.632;2023-06-10T11:32:51;98251.88;;;23.35;59.34
21359;BME280;13506;50.852;20.632;2023-06-10T11:35:24;98241.03;;;23.43;60.50
21359;BME280;13506;50.852;20.632;2023-06-10T11:37:53;98239.09;;;23.23;60.47
21359;BME280;13506;50.852;20.632;2023-06-10T11:40:22;98245.84;;;22.76;61.79
21359;BME280;13506;50.852;20.632;2023-06-10T11:42:50;98248.50;;;23.19;63.08
21359;BME280;13506;50.852;20.632;2023-06-10T11:45:18;98233.56;;;23.31;61.25
21359;BME280;13506;50.852;20.632;2023-06-10T11:48:00;98234.97;;;23.27;60.16
21359;BME280;13506;50.852;20.632;2023-06-10T11:50:30;98233.41;;;23.40;60.50
21359;BME280;13506;50.852;20.632;2023-06-10T11:52:58;98240.19;;;23.42;61.72
21359;BME280;13506;50.852;20.632;2023-06-10T11:55:38;98249.91;;;23.15;62.95
21359;BME280;13506;50.852;20.632;2023-06-10T11:58:11;98242.50;;;22.67;64.77
21359;BME280;13506;50.852;20.632;2023-06-10T12:00:45;98232.19;;;22.58;63.34
21359;BME280;13506;50.852;20.632;2023-06-10T12:03:15;98230.97;;;22.88;62.60
21359;BME280;13506;50.852;20.632;2023-06-10T12:05:55;98235.69;;;22.86;61.92
21359;BME280;13506;50.852;20.632;2023-06-10T12:08:24;98232.78;;;22.81;64.30
21359;BME280;13506;50.852;20.632;2023-06-10T12:10:52;98222.53;;;22.85;61.86
21359;BME280;13506;50.852;20.632;2023-06-10T12:13:21;98232.94;;;23.01;63.14
21359;BME280;13506;50.852;20.632;2023-06-10T12:15:50;98224.22;;;23.14;61.90
21359;BME280;13506;50.852;20.632;2023-06-10T12:18:20;98243.88;;;22.85;60.85
21359;BME280;13506;50.852;20.632;2023-06-10T12:20:49;98236.56;;;22.94;62.62
21359;BME280;13506;50.852;20.632;2023-06-10T12:23:18;98229.63;;;22.49;64.23
21359;BME280;13506;50.852;20.632;2023-06-10T12:25:50;98243.56;;;21.79;67.18
21359;BME280;13506;50.852;20.632;2023-06-10T12:28:21;98239.06;;;21.79;69.27
21359;BME280;13506;50.852;20.632;2023-06-10T12:30:50;98258.72;;;21.78;67.91
21359;BME280;13506;50.852;20.632;2023-06-10T12:33:20;98242.25;;;22.04;68.32
21359;BME280;13506;50.852;20.632;2023-06-10T12:35:49;98245.63;;;22.13;67.05
21359;BME280;13506;50.852;20.632;2023-06-10T12:38:22;98247.22;;;22.44;66.82
21359;BME280;13506;50.852;20.632;2023-06-10T12:40:51;98243.31;;;22.68;66.91
21359;BME280;13506;50.852;20.632;2023-06-10T12:43:20;98240.75;;;22.17;64.87
21359;BME280;13506;50.852;20.632;2023-06-10T12:45:48;98249.22;;;22.05;64.99
21359;BME280;13506;50.852;20.632;2023-06-10T12:48:23;98248.84;;;22.08;66.07
21359;BME280;13506;50.852;20.632;2023-06-10T12:50:53;98240.16;;;21.55;64.94
21359;BME280;13506;50.852;20.632;2023-06-10T12:53:22;98247.63;;;21.75;65.92
21359;BME280;13506;50.852;20.632;2023-06-10T12:55:51;98234.31;;;21.75;65.71
21359;BME280;13506;50.852;20.632;2023-06-10T12:58:19;98239.44;;;21.76;66.97
21359;BME280;13506;50.852;20.632;2023-06-10T13:00:48;98242.34;;;21.07;69.63
21359;BME280;13506;50.852;20.632;2023-06-10T13:03:20;98248.69;;;21.06;67.53
21359;BME280;13506;50.852;20.632;2023-06-10T13:05:48;98247.69;;;21.52;67.18
21359;BME280;13506;50.852;20.632;2023-06-10T13:08:16;98234.66;;;21.57;67.44
21359;BME280;13506;50.852;20.632;2023-06-10T13:10:44;98249.06;;;21.62;64.85
21359;BME280;13506;50.852;20.632;2023-06-10T13:13:12;98235.88;;;21.54;65.60
21359;BME280;13506;50.852;20.632;2023-06-10T13:15:41;98233.22;;;20.86;66.83
21359;BME280;13506;50.852;20.632;2023-06-10T13:18:09;98221.81;;;21.45;66.86
21359;BME280;13506;50.852;20.632;2023-06-10T13:20:38;98222.38;;;21.41;66.07
21359;BME280;13506;50.852;20.632;2023-06-10T13:23:07;98234.53;;;20.44;66.39
21359;BME280;13506;50.852;20.632;2023-06-10T13:25:35;98236.88;;;20.39;68.48
21359;BME280;13506;50.852;20.632;2023-06-10T13:28:03;98235.41;;;20.37;65.39
21359;BME280;13506;50.852;20.632;2023-06-10T13:30:31;98231.63;;;20.31;66.04
21359;BME280;13506;50.852;20.632;2023-06-10T13:32:59;98230.88;;;20.45;66.26
21359;BME280;13506;50.852;20.632;2023-06-10T13:35:27;98227.03;;;20.86;66.05
21359;BME280;13506;50.852;20.632;2023-06-10T13:37:56;98230.38;;;20.65;65.12
21359;BME280;13506;50.852;20.632;2023-06-10T13:40:24;98228.41;;;21.20;63.80
21359;BME280;13506;50.852;20.632;2023-06-10T13:42:52;98237.88;;;21.22;63.03
21359;BME280;13506;50.852;20.632;2023-06-10T13:45:21;98230.56;;;21.39;61.45
21359;BME280;13506;50.852;20.632;2023-06-10T13:47:48;98236.31;;;21.58;62.32
21359;BME280;13506;50.852;20.632;2023-06-10T13:50:17;98238.06;;;20.83;60.66
21359;BME280;13506;50.852;20.632;2023-06-10T13:52:45;98247.63;;;20.69;62.63